Time;durP1;ratioP1;P1;durP2;ratioP2;P2;SDS_P1;SDS_P2;PMS_P1;PMS_P2;Temp;Humidity;BMP_temperature;BMP_pressure;BME280_temperature;BME280_humidity;BME280_pressure;Samples;Min_cycle;Max_cycle;Signal;HPM_P1;HPM_P2
2023/02/16 00:01:49;;;;;;;114.30;54.03;;;2.30;99.90;;;;;;5094601;28;20650;-82
2023/02/16 00:04:19;;;;;;;104.25;51.70;;;2.30;99.90;;;;;;5094638;28;20271;-82
2023/02/16 00:06:45;;;;;;;113.30;53.20;;;2.30;99.90;;;;;;5094392;28;20224;-82
2023/02/16 00:09:11;;;;;;;117.73;55.43;;;2.20;99.90;;;;;;5095671;28;20231;-81
2023/02/16 00:14:24;;;;;;;117.82;57.20;;;2.20;99.90;;;;;;5095550;28;20258;-81
2023/02/16 00:16:51;;;;;;;133.10;60.92;;;2.20;99.90;;;;;;5095570;28;20260;-82
2023/02/16 00:19:24;;;;;;;145.50;75.05;;;2.20;99.90;;;;;;5094310;28;20188;-82
2023/02/16 00:21:53;;;;;;;138.50;65.63;;;2.20;99.90;;;;;;5095467;28;20222;-82
2023/02/16 00:24:19;;;;;;;141.07;67.75;;;2.20;99.90;;;;;;5094147;28;20177;-81
2023/02/16 00:26:46;;;;;;;134.15;67.25;;;2.20;99.90;;;;;;5093878;28;20233;-82
2023/02/16 00:29:23;;;;;;;138.40;70.00;;;2.20;99.90;;;;;;5094011;28;20715;-82
2023/02/16 00:31:49;;;;;;;141.65;67.45;;;2.20;99.90;;;;;;5095306;28;20617;-82
2023/02/16 00:34:36;;;;;;;161.20;78.17;;;2.30;99.90;;;;;;5093869;28;20237;-82
2023/02/16 00:37:07;;;;;;;169.30;80.68;;;2.40;99.90;;;;;;5095091;28;20462;-82
2023/02/16 00:39:34;;;;;;;142.38;68.07;;;2.40;99.90;;;;;;5095348;28;20259;-82
2023/02/16 00:42:06;;;;;;;131.73;64.45;;;2.30;99.90;;;;;;5094224;28;20204;-82
2023/02/16 00:44:42;;;;;;;129.35;62.88;;;2.20;99.90;;;;;;5093862;28;20183;-82
2023/02/16 00:47:21;;;;;;;136.70;70.07;;;2.10;99.90;;;;;;5095029;28;20243;-82
2023/02/16 00:49:49;;;;;;;131.70;65.88;;;2.10;99.90;;;;;;5094946;28;20697;-82
2023/02/16 00:52:37;;;;;;;136.63;61.58;;;2.20;99.90;;;;;;5093604;28;20251;-82
2023/02/16 00:55:10;;;;;;;108.18;56.67;;;2.20;99.90;;;;;;5093799;28;20538;-82
2023/02/16 00:57:55;;;;;;;141.63;63.35;;;2.10;99.90;;;;;;5093424;28;20192;-82
2023/02/16 01:00:32;;;;;;;124.10;61.08;;;2.00;99.90;;;;;;5093620;28;20208;-82
2023/02/16 01:03:00;;;;;;;120.47;59.70;;;2.00;99.90;;;;;;5093351;28;20226;-82
2023/02/16 01:05:27;;;;;;;118.72;59.13;;;2.00;99.90;;;;;;5094929;28;20168;-82
2023/02/16 01:13:44;;;;;;;117.63;60.53;;;1.90;99.90;;;;;;5071007;28;20289;-82
2023/02/16 01:16:17;;;;;;;122.13;59.20;;;2.00;99.90;;;;;;5095013;28;20200;-82
2023/02/16 01:18:43;;;;;;;129.52;60.67;;;2.10;99.90;;;;;;5093313;28;20629;-82
2023/02/16 01:21:09;;;;;;;130.05;59.80;;;2.10;99.90;;;;;;5093055;28;20523;-82
2023/02/16 01:23:36;;;;;;;127.57;63.53;;;2.00;99.90;;;;;;5093008;28;20204;-82
2023/02/16 01:26:02;;;;;;;124.60;64.30;;;1.80;99.90;;;;;;5094811;28;20180;-82
2023/02/16 01:28:28;;;;;;;123.13;60.88;;;1.80;99.90;;;;;;5094246;28;20267;-82
2023/02/16 01:30:54;;;;;;;117.77;58.30;;;1.80;99.90;;;;;;5093132;28;20233;-82
2023/02/16 01:33:20;;;;;;;118.70;58.17;;;1.70;99.90;;;;;;5094153;28;20406;-82
2023/02/16 01:35:46;;;;;;;119.10;63.08;;;1.80;99.90;;;;;;5092776;28;20181;-82
2023/02/16 01:38:18;;;;;;;129.55;64.05;;;1.80;99.90;;;;;;5092758;28;20730;-81
2023/02/16 01:40:55;;;;;;;120.68;57.97;;;1.80;99.90;;;;;;5093982;28;20204;-82
2023/02/16 01:43:44;;;;;;;126.80;59.33;;;1.70;99.90;;;;;;5093992;28;20188;-82
2023/02/16 01:46:24;;;;;;;125.90;53.72;;;1.80;99.90;;;;;;5094113;28;20547;-82
2023/02/16 01:48:49;;;;;;;120.80;57.90;;;1.80;99.90;;;;;;5092591;28;20715;-82
2023/02/16 01:51:24;;;;;;;128.53;55.83;;;1.70;99.90;;;;;;5092569;28;20180;-81
2023/02/16 01:53:57;;;;;;;115.50;49.38;;;1.70;99.90;;;;;;5092426;28;20608;-82
2023/02/16 01:56:35;;;;;;;112.28;48.00;;;1.60;99.90;;;;;;5092592;28;20691;-82
2023/02/16 01:59:32;;;;;;;101.63;49.72;;;1.60;99.90;;;;;;5092306;28;20231;-82
2023/02/16 02:02:03;;;;;;;80.85;43.05;;;1.60;99.90;;;;;;5093821;28;20180;-82
2023/02/16 02:08:00;;;;;;;94.47;46.10;;;1.50;99.90;;;;;;5093915;28;20234;-82
2023/02/16 02:10:44;;;;;;;99.25;48.25;;;1.40;99.90;;;;;;5092610;28;20216;-82
2023/02/16 02:13:20;;;;;;;105.53;51.92;;;1.30;99.90;;;;;;5092289;28;20220;-82
2023/02/16 02:15:46;;;;;;;107.93;50.65;;;1.20;99.90;;;;;;5092260;28;20187;-82
2023/02/16 02:18:12;;;;;;;96.37;50.40;;;1.10;99.90;;;;;;5093613;28;20192;-82
2023/02/16 02:24:02;;;;;;;102.03;46.75;;;1.10;99.90;;;;;;5093691;28;20559;-82
2023/02/16 02:26:50;;;;;;;125.25;58.55;;;1.00;99.90;;;;;;5093088;28;20208;-82
2023/02/16 02:29:49;;;;;;;146.85;70.65;;;1.10;99.90;;;;;;5093382;28;20302;-82
2023/02/16 02:32:28;;;;;;;162.48;78.20;;;1.00;99.90;;;;;;5093580;28;20197;-82
2023/02/16 02:35:22;;;;;;;162.00;79.80;;;1.00;99.90;;;;;;5092403;28;20176;-82
2023/02/16 02:37:56;;;;;;;154.98;75.82;;;1.00;99.90;;;;;;5093564;28;20281;-81
2023/02/16 02:40:48;;;;;;;148.93;77.97;;;1.00;99.90;;;;;;5092382;28;20321;-82
2023/02/16 02:43:17;;;;;;;151.73;73.03;;;1.00;99.90;;;;;;5093426;28;20196;-82
2023/02/16 02:45:49;;;;;;;171.25;82.22;;;1.00;99.90;;;;;;5092209;28;20180;-81
2023/02/16 02:48:15;;;;;;;158.82;78.28;;;1.00;99.90;;;;;;5092044;28;20241;-82
2023/02/16 03:03:26;;;;;;;146.95;73.13;;;1.00;99.90;;;;;;5093412;28;20212;-82
2023/02/16 03:05:58;;;;;;;149.40;70.00;;;0.90;99.90;;;;;;5093610;28;20203;-82
2023/02/16 03:08:27;;;;;;;186.95;83.00;;;0.90;99.90;;;;;;5096749;28;20192;-81
2023/02/16 03:14:06;;;;;;;188.63;86.07;;;0.90;99.90;;;;;;5073402;28;20224;-82
2023/02/16 03:16:49;;;;;;;190.68;89.45;;;0.90;99.90;;;;;;5096788;28;20516;-81
2023/02/16 03:30:24;;;;;;;135.30;61.63;;;0.80;99.90;;;;;;5096910;28;20210;-82
2023/02/16 03:32:51;;;;;;;128.00;67.75;;;0.70;99.90;;;;;;5096362;28;20226;-82
2023/02/16 03:35:17;;;;;;;130.88;65.00;;;0.70;99.90;;;;;;5095289;28;20173;-82
2023/02/16 03:37:43;;;;;;;122.13;58.90;;;0.70;99.90;;;;;;5095000;28;20209;-81
2023/02/16 03:40:28;;;;;;;148.38;65.50;;;0.70;99.90;;;;;;5096569;28;20183;-82
2023/02/16 03:43:03;;;;;;;124.18;60.10;;;0.70;99.90;;;;;;5094980;28;20240;-82
2023/02/16 03:45:30;;;;;;;108.88;58.35;;;0.70;99.90;;;;;;5094973;28;20595;-82
2023/02/16 03:47:56;;;;;;;139.02;62.00;;;0.60;99.90;;;;;;5094890;28;20631;-82
2023/02/16 03:50:22;;;;;;;120.17;56.93;;;0.60;99.90;;;;;;5094826;28;20300;-82
2023/02/16 03:52:48;;;;;;;119.47;56.53;;;0.60;99.90;;;;;;5095946;28;20464;-81
2023/02/16 03:55:14;;;;;;;129.57;56.17;;;0.50;99.90;;;;;;5094764;28;20609;-82
2023/02/16 03:57:40;;;;;;;124.00;56.30;;;0.50;99.90;;;;;;5094626;28;20762;-82
2023/02/16 04:00:06;;;;;;;140.17;62.00;;;0.40;99.90;;;;;;5096177;28;20172;-82
2023/02/16 04:02:32;;;;;;;138.35;59.38;;;0.40;99.90;;;;;;5095789;28;20665;-82
2023/02/16 04:04:58;;;;;;;128.70;59.10;;;0.40;99.90;;;;;;5096016;28;20187;-81
2023/02/16 04:07:24;;;;;;;140.50;60.20;;;0.40;99.90;;;;;;5094513;28;20498;-81
2023/02/16 04:09:49;;;;;;;154.00;64.07;;;0.40;99.90;;;;;;5094293;28;20223;-82
2023/02/16 04:14:59;;;;;;;170.73;71.22;;;0.40;99.90;;;;;;5095980;28;20626;-81
2023/02/16 04:17:25;;;;;;;140.10;63.40;;;0.30;99.90;;;;;;5093027;28;20204;-82
2023/02/16 04:19:50;;;;;;;142.57;61.70;;;0.40;99.90;;;;;;5094341;28;20237;-82
2023/02/16 04:22:16;;;;;;;148.43;62.33;;;0.30;99.90;;;;;;5094166;28;20209;-82
2023/02/16 04:24:42;;;;;;;139.23;63.73;;;0.30;99.90;;;;;;5094112;28;20644;-82
2023/02/16 04:27:07;;;;;;;141.07;61.77;;;0.20;99.90;;;;;;5094422;28;20200;-82
2023/02/16 04:29:33;;;;;;;157.10;70.43;;;0.10;99.90;;;;;;5093943;28;20687;-82
2023/02/16 04:31:59;;;;;;;147.13;68.23;;;-0.10;99.90;;;;;;5093986;28;20417;-82
2023/02/16 04:34:24;;;;;;;156.60;74.10;;;-0.10;99.90;;;;;;5095251;28;20636;-82
2023/02/16 04:36:50;;;;;;;163.20;73.43;;;-0.10;99.90;;;;;;5093839;28;20267;-82
2023/02/16 04:39:16;;;;;;;166.67;69.20;;;-0.10;99.90;;;;;;5093926;28;20226;-82
2023/02/16 04:41:41;;;;;;;186.33;82.13;;;-0.30;99.90;;;;;;5093732;28;20185;-82
2023/02/16 04:44:07;;;;;;;300.77;129.10;;;-0.30;99.90;;;;;;5093758;28;20168;-82
2023/02/16 04:46:33;;;;;;;353.83;157.97;;;-0.20;99.90;;;;;;5094980;28;20176;-82
2023/02/16 04:48:59;;;;;;;247.77;96.63;;;-0.20;99.90;;;;;;5094487;28;20195;-82
2023/02/16 04:51:24;;;;;;;240.00;101.30;;;-0.20;99.90;;;;;;5093644;28;20192;-82
2023/02/16 04:53:50;;;;;;;200.17;90.13;;;-0.10;99.90;;;;;;5093592;28;20462;-82
2023/02/16 04:56:16;;;;;;;184.53;84.43;;;-0.20;99.90;;;;;;5095340;28;20211;-81
2023/02/16 04:58:41;;;;;;;192.23;83.30;;;-0.40;99.90;;;;;;5093359;28;20200;-82
2023/02/16 05:01:07;;;;;;;206.00;91.30;;;-0.30;99.90;;;;;;5093487;28;20221;-82
2023/02/16 05:03:33;;;;;;;230.30;102.35;;;-0.40;99.90;;;;;;5094401;28;20199;-82
2023/02/16 05:05:59;;;;;;;225.32;90.80;;;-0.30;99.90;;;;;;5093135;28;20176;-82
2023/02/16 05:08:25;;;;;;;222.70;98.17;;;-0.40;99.90;;;;;;5113289;28;20211;-82
2023/02/16 05:16:21;;;;;;;218.27;92.70;;;-0.40;99.90;;;;;;5093835;28;20318;-82
2023/02/16 05:18:47;;;;;;;241.93;96.72;;;-0.40;99.90;;;;;;5093587;28;20683;-82
2023/02/16 05:21:30;;;;;;;202.00;93.53;;;-0.40;99.90;;;;;;5094354;28;20261;-82
2023/02/16 05:24:17;;;;;;;231.60;92.40;;;-0.40;99.90;;;;;;5092665;28;20199;-81
2023/02/16 05:26:42;;;;;;;218.50;88.80;;;-0.40;99.90;;;;;;5073212;28;20192;-82
2023/02/16 05:29:08;;;;;;;217.90;92.37;;;-0.40;99.90;;;;;;5091434;28;20176;-82
2023/02/16 05:31:34;;;;;;;223.43;87.93;;;-0.40;99.90;;;;;;5092083;28;20657;-82
2023/02/16 05:33:59;;;;;;;210.23;85.23;;;-0.40;99.90;;;;;;5091809;28;20199;-82
2023/02/16 05:36:25;;;;;;;217.87;89.70;;;-0.50;99.90;;;;;;5092199;28;20217;-80
2023/02/16 05:38:51;;;;;;;207.87;89.57;;;-0.50;99.90;;;;;;5093177;28;20199;-82
2023/02/16 05:41:22;;;;;;;195.13;88.00;;;-0.50;99.90;;;;;;5100027;28;20250;-82
2023/02/16 05:43:55;;;;;;;199.50;85.30;;;-0.50;99.90;;;;;;5093872;28;20211;-83
2023/02/16 05:46:23;;;;;;;204.05;92.13;;;-0.50;99.90;;;;;;5075769;28;20180;-82
2023/02/16 05:48:49;;;;;;;227.07;94.03;;;-0.50;99.90;;;;;;5093946;28;20188;-82
2023/02/16 05:51:15;;;;;;;224.05;93.22;;;-0.70;99.90;;;;;;5075480;28;20220;-83
2023/02/16 05:53:40;;;;;;;200.93;89.70;;;-0.80;99.90;;;;;;5099095;28;20241;-82
2023/02/16 05:56:06;;;;;;;163.47;81.73;;;-0.90;99.90;;;;;;5095599;28;20179;-82
2023/02/16 05:58:32;;;;;;;134.70;63.97;;;-0.90;99.90;;;;;;5112768;28;20835;-82
2023/02/16 06:00:58;;;;;;;128.83;64.50;;;-0.90;99.90;;;;;;5095554;28;20175;-82
2023/02/16 06:03:24;;;;;;;140.37;66.73;;;-0.80;99.90;;;;;;5113930;28;20938;-81
2023/02/16 06:05:59;;;;;;;150.23;73.88;;;-0.80;99.90;;;;;;5095629;28;20681;-82
2023/02/16 06:08:25;;;;;;;151.88;73.40;;;-1.00;99.90;;;;;;5114013;28;20195;-82
2023/02/16 06:10:52;;;;;;;161.82;76.78;;;-0.90;99.90;;;;;;5095596;28;20230;-82
2023/02/16 06:13:19;;;;;;;157.57;76.68;;;-0.90;99.90;;;;;;5095431;28;20361;-82
2023/02/16 06:15:45;;;;;;;212.27;89.63;;;-1.00;99.90;;;;;;5094035;28;20203;-82
2023/02/16 06:18:12;;;;;;;181.55;82.07;;;-1.00;99.90;;;;;;5104101;28;20526;-82
2023/02/16 06:20:39;;;;;;;191.93;83.30;;;-1.00;99.90;;;;;;5108303;28;20239;-82
2023/02/16 06:23:06;;;;;;;177.40;81.68;;;-0.80;99.90;;;;;;5102285;28;20200;-82
2023/02/16 06:25:33;;;;;;;188.40;82.35;;;-0.80;99.90;;;;;;5089227;28;20284;-82
2023/02/16 06:27:59;;;;;;;242.05;104.32;;;-0.90;99.90;;;;;;5107218;28;20201;-82
2023/02/16 06:30:25;;;;;;;225.27;105.40;;;-0.80;99.90;;;;;;5101447;28;20222;-83
2023/02/16 06:32:50;;;;;;;206.40;102.88;;;-0.70;99.90;;;;;;5091770;28;20436;-83
2023/02/16 06:35:16;;;;;;;235.80;105.07;;;-0.80;99.90;;;;;;5094936;28;20215;-82
2023/02/16 06:37:42;;;;;;;227.73;100.80;;;-0.80;99.90;;;;;;5072437;28;20208;-82
2023/02/16 06:40:15;;;;;;;198.90;96.40;;;-0.60;99.90;;;;;;5091530;28;20431;-82
2023/02/16 06:42:41;;;;;;;194.40;96.03;;;-0.50;99.90;;;;;;5105202;28;20204;-82
2023/02/16 06:45:07;;;;;;;187.35;92.25;;;-0.50;99.90;;;;;;5102851;28;20263;-82
2023/02/16 06:47:34;;;;;;;178.05;94.85;;;-0.40;99.90;;;;;;5093757;28;20563;-82
2023/02/16 06:49:59;;;;;;;168.93;90.00;;;-0.40;99.90;;;;;;5095795;28;20220;-82
2023/02/16 06:52:25;;;;;;;177.40;87.90;;;-0.30;99.90;;;;;;5116769;28;20207;-82
2023/02/16 06:54:51;;;;;;;176.07;88.53;;;-0.20;99.90;;;;;;5110221;28;20180;-82
2023/02/16 06:57:16;;;;;;;191.30;87.97;;;-0.10;99.90;;;;;;5083392;28;20230;-82
2023/02/16 06:59:42;;;;;;;185.30;96.07;;;0.00;99.90;;;;;;5113055;28;20177;-82
2023/02/16 07:02:09;;;;;;;196.80;95.80;;;0.20;99.90;;;;;;5104399;28;20208;-82
2023/02/16 07:04:35;;;;;;;160.50;85.00;;;0.30;99.90;;;;;;5108225;28;20171;-82
2023/02/16 07:07:01;;;;;;;174.07;84.50;;;0.30;99.90;;;;;;5090001;28;20238;-82
2023/02/16 07:09:27;;;;;;;152.02;87.28;;;0.30;99.90;;;;;;5103939;28;20468;-83
2023/02/16 07:11:53;;;;;;;162.60;89.77;;;0.20;99.90;;;;;;5102563;28;20176;-83
2023/02/16 07:14:19;;;;;;;197.53;101.00;;;0.40;99.90;;;;;;5103455;28;20496;-83
2023/02/16 07:16:44;;;;;;;270.67;118.20;;;0.40;99.90;;;;;;5105512;28;20491;-83
2023/02/16 07:19:10;;;;;;;338.50;145.63;;;0.40;99.90;;;;;;5088264;28;20514;-83
2023/02/16 07:21:36;;;;;;;254.13;119.43;;;0.40;99.90;;;;;;5087818;28;20182;-82
2023/02/16 07:24:02;;;;;;;213.23;100.90;;;0.40;99.90;;;;;;5083058;28;20227;-82
2023/02/16 07:26:28;;;;;;;158.30;81.97;;;0.40;99.90;;;;;;5098298;28;20779;-82
2023/02/16 07:28:54;;;;;;;176.63;87.80;;;0.50;99.90;;;;;;5100882;28;20195;-83
2023/02/16 07:31:20;;;;;;;198.53;104.20;;;0.80;99.90;;;;;;5097981;28;20673;-83
2023/02/16 07:33:45;;;;;;;267.87;123.53;;;1.00;99.90;;;;;;5098777;28;20460;-82
2023/02/16 07:36:12;;;;;;;289.27;141.03;;;1.30;99.90;;;;;;5097515;28;20818;-82
2023/02/16 07:38:40;;;;;;;229.80;116.32;;;1.60;99.90;;;;;;5088395;28;20379;-83
2023/02/16 07:41:07;;;;;;;187.85;105.35;;;2.00;99.90;;;;;;5092867;28;20187;-83
2023/02/16 07:43:33;;;;;;;158.40;86.35;;;2.50;99.90;;;;;;5109106;28;20196;-82
2023/02/16 07:45:59;;;;;;;114.30;61.17;;;2.90;99.90;;;;;;5110483;28;20174;-82
2023/02/16 07:48:25;;;;;;;115.03;63.47;;;3.10;99.90;;;;;;5112263;28;20671;-82
2023/02/16 07:50:51;;;;;;;109.03;58.00;;;3.20;99.90;;;;;;5112365;28;20295;-82
2023/02/16 07:53:16;;;;;;;116.67;66.70;;;3.30;99.90;;;;;;5093968;28;20628;-82
2023/02/16 07:55:44;;;;;;;116.20;62.90;;;3.20;99.90;;;;;;5094577;28;20803;-82
2023/02/16 07:58:10;;;;;;;151.77;73.95;;;3.20;99.90;;;;;;5114956;28;20199;-82
2023/02/16 08:00:35;;;;;;;145.35;77.47;;;3.10;99.90;;;;;;5114207;28;20197;-82
2023/02/16 08:03:01;;;;;;;142.23;76.63;;;3.60;99.90;;;;;;5115491;28;20195;-82
2023/02/16 08:05:27;;;;;;;152.03;77.10;;;4.20;99.90;;;;;;5095778;28;20175;-82
2023/02/16 08:07:53;;;;;;;129.32;71.15;;;4.90;99.90;;;;;;5087565;28;20450;-83
2023/02/16 08:10:20;;;;;;;114.50;60.07;;;5.60;99.90;;;;;;5115539;28;20211;-82
2023/02/16 08:12:48;;;;;;;92.35;48.03;;;6.40;99.90;;;;;;5115434;28;20424;-82
2023/02/16 08:15:14;;;;;;;79.40;49.78;;;7.10;99.90;;;;;;5115387;28;20176;-82
2023/02/16 08:17:39;;;;;;;88.53;51.07;;;7.70;99.90;;;;;;5115428;28;20222;-82
2023/02/16 08:20:08;;;;;;;94.73;54.70;;;8.50;99.90;;;;;;5093167;28;20180;-83
2023/02/16 08:22:34;;;;;;;99.55;62.88;;;9.50;99.90;;;;;;5082947;28;20256;-83
2023/02/16 08:25:00;;;;;;;104.13;61.28;;;10.10;99.90;;;;;;5089978;28;20260;-82
2023/02/16 08:27:26;;;;;;;95.97;60.60;;;10.90;99.90;;;;;;5100926;28;20286;-82
2023/02/16 08:29:52;;;;;;;105.47;60.77;;;11.70;99.90;;;;;;5086514;28;20210;-83
2023/02/16 08:32:18;;;;;;;94.43;56.70;;;12.40;99.90;;;;;;5114569;28;20196;-83
2023/02/16 08:34:44;;;;;;;80.73;52.33;;;13.10;99.90;;;;;;5108592;28;20235;-83
2023/02/16 08:37:12;;;;;;;84.03;54.00;;;13.70;99.90;;;;;;5092278;28;20467;-84
2023/02/16 08:39:38;;;;;;;77.60;49.20;;;14.40;99.90;;;;;;5093624;28;20643;-83
2023/02/16 08:42:04;;;;;;;76.80;49.83;;;14.80;99.90;;;;;;5111055;28;20440;-83
2023/02/16 08:44:30;;;;;;;84.37;52.90;;;15.40;99.90;;;;;;5111122;28;20975;-84
2023/02/16 08:46:59;;;;;;;75.70;49.90;;;16.00;99.90;;;;;;5108737;28;20705;-84
2023/02/16 08:49:24;;;;;;;73.63;49.20;;;16.50;99.90;;;;;;5099131;28;20227;-83
2023/02/16 08:51:54;;;;;;;76.13;50.57;;;16.90;98.60;;;;;;5085355;28;20455;-83
2023/02/16 08:54:25;;;;;;;66.20;46.07;;;17.60;97.40;;;;;;5109039;28;20175;-83
2023/02/16 08:56:51;;;;;;;64.07;46.17;;;18.10;95.90;;;;;;5091540;28;20988;-84
2023/02/16 08:59:19;;;;;;;62.37;42.67;;;18.40;94.80;;;;;;5109784;28;20422;-83
2023/02/16 09:01:45;;;;;;;58.40;40.10;;;18.90;94.10;;;;;;5110053;28;20808;-83
2023/02/16 09:04:11;;;;;;;57.43;38.10;;;19.20;92.90;;;;;;5091562;28;20520;-84
2023/02/16 09:06:40;;;;;;;51.27;35.10;;;19.30;91.90;;;;;;5091214;28;20439;-84
2023/02/16 09:09:07;;;;;;;50.90;35.47;;;19.30;91.70;;;;;;5097350;28;20413;-84
2023/02/16 09:11:34;;;;;;;52.50;36.27;;;19.40;91.10;;;;;;5078469;28;20416;-84
2023/02/16 09:14:00;;;;;;;56.30;39.77;;;19.20;90.50;;;;;;5079531;28;20899;-83
2023/02/16 09:16:28;;;;;;;63.93;40.53;;;19.00;90.70;;;;;;5078229;28;20801;-83
2023/02/16 09:18:53;;;;;;;61.30;43.83;;;18.80;91.10;;;;;;5081310;28;20434;-84
2023/02/16 09:21:24;;;;;;;64.07;46.93;;;19.00;90.60;;;;;;5082380;28;20433;-83
2023/02/16 09:23:50;;;;;;;69.00;49.43;;;18.90;90.10;;;;;;5103384;28;20445;-84
2023/02/16 09:26:21;;;;;;;58.13;44.10;;;18.50;90.50;;;;;;5103235;28;20406;-84
2023/02/16 09:28:49;;;;;;;64.77;46.70;;;18.30;90.80;;;;;;5084648;28;20526;-84
2023/02/16 09:31:27;;;;;;;65.00;45.30;;;18.20;90.80;;;;;;5081249;28;20561;-83
2023/02/16 09:33:55;;;;;;;59.17;43.13;;;18.40;90.90;;;;;;5100002;28;20450;-84
2023/02/16 09:36:21;;;;;;;59.90;41.90;;;18.60;90.40;;;;;;5082229;28;20798;-83
2023/02/16 09:38:47;;;;;;;62.13;45.50;;;18.70;90.40;;;;;;5080253;28;20442;-84
2023/02/16 09:41:40;;;;;;;59.83;42.27;;;18.70;90.80;;;;;;5100798;28;20510;-84
2023/02/16 09:44:22;;;;;;;62.77;44.50;;;19.00;90.20;;;;;;5101631;28;20503;-84
2023/02/16 09:46:49;;;;;;;66.10;44.50;;;19.10;89.90;;;;;;5100990;28;20432;-84
2023/02/16 09:49:24;;;;;;;61.30;43.03;;;19.20;89.90;;;;;;5081067;28;20433;-83
2023/02/16 09:52:01;;;;;;;51.30;38.33;;;19.20;89.10;;;;;;5100365;28;20768;-84
2023/02/16 09:54:41;;;;;;;53.10;37.57;;;18.80;89.60;;;;;;5091628;28;20993;-84
2023/02/16 09:57:35;;;;;;;53.57;37.60;;;18.00;90.10;;;;;;5110625;28;20953;-84
2023/02/16 10:00:13;;;;;;;59.67;40.87;;;17.60;90.90;;;;;;5091052;28;20535;-83
2023/02/16 10:03:33;;;;;;;44.73;30.60;;;17.70;91.30;;;;;;5097734;28;20498;-84
2023/02/16 10:06:01;;;;;;;45.10;29.57;;;17.80;90.50;;;;;;5027339;28;20447;-83
2023/02/16 10:08:33;;;;;;;48.60;32.37;;;17.60;90.60;;;;;;5090555;28;21024;-84
2023/02/16 10:11:36;;;;;;;52.03;33.83;;;17.20;91.00;;;;;;5108953;28;20548;-84
2023/02/16 10:14:08;;;;;;;46.90;31.90;;;17.00;91.60;;;;;;5106961;28;20579;-83
2023/02/16 10:16:50;;;;;;;46.47;31.03;;;16.70;91.70;;;;;;5104650;28;20941;-84
2023/02/16 10:19:24;;;;;;;45.67;29.70;;;16.50;92.10;;;;;;5112721;28;20427;-83
2023/02/16 10:21:55;;;;;;;36.77;27.03;;;16.40;92.40;;;;;;5096288;28;20956;-84
2023/02/16 10:24:21;;;;;;;40.87;28.47;;;15.90;92.00;;;;;;5079653;28;20446;-83
2023/02/16 10:26:53;;;;;;;42.27;29.27;;;15.30;92.70;;;;;;5093720;28;20897;-83
2023/02/16 10:29:21;;;;;;;44.00;31.60;;;15.10;93.20;;;;;;5096764;28;20481;-84
2023/02/16 10:32:04;;;;;;;41.00;28.97;;;14.80;93.30;;;;;;5110192;28;20775;-83
2023/02/16 10:34:55;;;;;;;54.20;34.97;;;14.70;93.80;;;;;;5089975;28;20792;-84
2023/02/16 10:38:19;;;;;;;53.13;36.60;;;14.60;94.10;;;;;;5105431;28;20487;-82
2023/02/16 10:41:06;;;;;;;49.10;31.73;;;14.50;94.20;;;;;;5084285;28;20432;-83
2023/02/16 10:44:00;;;;;;;51.17;33.23;;;14.20;94.60;;;;;;5095265;27;20541;-83
2023/02/16 10:46:33;;;;;;;50.47;34.17;;;13.90;95.20;;;;;;5075558;28;20442;-83
2023/02/16 10:49:00;;;;;;;51.20;31.57;;;13.80;95.30;;;;;;5089265;28;20852;-82
2023/02/16 10:51:32;;;;;;;49.83;35.00;;;13.60;95.50;;;;;;5079692;28;20513;-83
2023/02/16 10:54:12;;;;;;;50.77;32.37;;;13.50;95.70;;;;;;5113628;28;20769;-82
2023/02/16 10:56:56;;;;;;;47.37;31.07;;;13.30;96.00;;;;;;5096454;28;21007;-83
2023/02/16 10:59:25;;;;;;;44.30;29.77;;;13.20;96.30;;;;;;5110939;28;20420;-82
2023/02/16 11:01:59;;;;;;;42.67;27.87;;;13.00;96.30;;;;;;5081670;28;20520;-83
2023/02/16 11:04:39;;;;;;;36.73;23.30;;;12.80;96.80;;;;;;5092922;28;20518;-83
2023/02/16 11:07:07;;;;;;;42.70;27.10;;;12.60;96.70;;;;;;5106951;28;20996;-83
2023/02/16 11:09:34;;;;;;;45.80;29.00;;;12.50;96.90;;;;;;5099935;28;20476;-83
2023/02/16 11:12:01;;;;;;;39.70;26.73;;;12.90;97.70;;;;;;5077290;28;20456;-83
2023/02/16 11:14:29;;;;;;;38.10;25.90;;;13.10;97.00;;;;;;5095661;28;20968;-83
2023/02/16 11:17:10;;;;;;;38.90;26.60;;;13.30;96.60;;;;;;5095992;28;20428;-83
2023/02/16 11:19:38;;;;;;;40.40;27.60;;;13.20;96.30;;;;;;5094528;28;20442;-82
2023/02/16 11:22:06;;;;;;;37.20;24.63;;;13.10;96.70;;;;;;5097015;28;20467;-83
2023/02/16 11:24:35;;;;;;;35.30;24.60;;;13.40;96.00;;;;;;5112951;28;20420;-83
2023/02/16 11:27:13;;;;;;;45.57;29.00;;;13.40;95.80;;;;;;5096657;28;20471;-82
2023/02/16 11:29:39;;;;;;;38.40;26.27;;;13.50;96.70;;;;;;5096638;28;21023;-84
2023/02/16 11:32:13;;;;;;;43.10;28.40;;;13.50;96.30;;;;;;5096436;28;20440;-83
2023/02/16 11:34:43;;;;;;;39.07;25.80;;;13.40;96.30;;;;;;5092033;28;20439;-83
2023/02/16 11:37:12;;;;;;;37.70;25.30;;;13.50;96.50;;;;;;5103951;28;20448;-84
2023/02/16 11:39:40;;;;;;;40.63;26.37;;;13.70;96.20;;;;;;5082188;28;20673;-82
2023/02/16 11:42:20;;;;;;;40.33;26.90;;;13.70;95.90;;;;;;5096772;28;20475;-83
2023/02/16 11:44:55;;;;;;;41.77;28.03;;;13.50;96.00;;;;;;5107542;28;20424;-83
2023/02/16 11:47:38;;;;;;;40.07;25.80;;;13.40;95.90;;;;;;5093146;28;20451;-81
2023/02/16 11:50:34;;;;;;;41.67;27.83;;;13.20;96.20;;;;;;5105462;28;21256;-82
2023/02/16 11:53:08;;;;;;;46.90;27.43;;;13.20;95.90;;;;;;5091111;28;21043;-83
2023/02/16 11:55:37;;;;;;;43.30;26.80;;;13.20;96.30;;;;;;5100494;28;20473;-83
2023/02/16 11:58:12;;;;;;;40.40;26.67;;;13.00;96.70;;;;;;5097998;28;20809;-82
2023/02/16 12:00:42;;;;;;;41.70;29.30;;;13.20;96.40;;;;;;5105885;28;20424;-83
2023/02/16 12:03:22;;;;;;;43.93;26.70;;;13.50;96.40;;;;;;5091540;28;20952;-83
2023/02/16 12:06:24;;;;;;;38.70;26.53;;;13.70;96.40;;;;;;5072964;28;20425;-83
2023/02/16 12:08:50;;;;;;;45.70;27.67;;;13.80;95.80;;;;;;5090223;28;20463;-82
2023/02/16 12:11:34;;;;;;;47.97;28.20;;;13.60;95.60;;;;;;5113195;28;21036;-83
2023/02/16 12:14:21;;;;;;;41.60;27.87;;;13.70;95.80;;;;;;5113258;28;20470;-84
2023/02/16 12:16:56;;;;;;;39.00;27.20;;;13.70;95.80;;;;;;5096992;28;20440;-83
2023/02/16 12:19:24;;;;;;;40.63;27.60;;;13.70;95.60;;;;;;5115952;28;20396;-83
2023/02/16 12:22:03;;;;;;;39.60;27.70;;;13.60;95.90;;;;;;5094404;28;20444;-82
2023/02/16 12:24:43;;;;;;;37.93;25.03;;;13.70;96.10;;;;;;5108593;28;20921;-84
2023/02/16 12:27:28;;;;;;;44.87;29.00;;;13.80;95.70;;;;;;5093329;28;20440;-84
2023/02/16 12:29:59;;;;;;;39.50;26.73;;;13.90;95.50;;;;;;5093869;28;21061;-82
2023/02/16 12:32:53;;;;;;;35.97;26.10;;;13.70;95.20;;;;;;5113390;28;20436;-84
2023/02/16 12:35:31;;;;;;;38.70;25.23;;;13.70;95.40;;;;;;5094849;28;20955;-82
2023/02/16 12:38:26;;;;;;;74.27;44.13;;;13.70;95.50;;;;;;5093563;28;20509;-82
2023/02/16 12:40:57;;;;;;;39.10;25.87;;;13.80;95.60;;;;;;5093578;28;20512;-83
2023/02/16 12:43:38;;;;;;;45.57;29.10;;;13.90;95.40;;;;;;5109934;28;20547;-83
2023/02/16 12:46:16;;;;;;;49.23;32.80;;;13.80;95.20;;;;;;5094420;28;20431;-84
2023/02/16 12:48:54;;;;;;;42.57;28.70;;;13.80;95.80;;;;;;5108421;28;21153;-83
2023/02/16 12:51:29;;;;;;;36.53;27.07;;;13.90;95.40;;;;;;5089977;28;20482;-82
2023/02/16 12:54:16;;;;;;;38.20;26.17;;;14.00;95.30;;;;;;5110547;28;20461;-83
2023/02/16 12:56:45;;;;;;;44.43;26.27;;;14.10;95.40;;;;;;5104764;28;20933;-83
2023/02/16 12:59:23;;;;;;;43.20;28.07;;;14.40;95.00;;;;;;5111231;28;20424;-82
2023/02/16 13:01:53;;;;;;;47.10;30.70;;;14.50;94.60;;;;;;5084647;28;20436;-83
2023/02/16 13:04:47;;;;;;;41.90;29.03;;;14.70;94.30;;;;;;5101006;28;20440;-83
2023/02/16 13:07:31;;;;;;;41.43;27.77;;;14.50;94.10;;;;;;5085387;28;20452;-84
2023/02/16 13:10:16;;;;;;;42.10;28.70;;;14.60;94.10;;;;;;5086681;28;20835;-83
2023/02/16 13:12:46;;;;;;;44.00;29.57;;;14.60;94.40;;;;;;5103028;28;20476;-82
2023/02/16 13:15:19;;;;;;;50.13;31.77;;;14.70;93.90;;;;;;5081968;28;20420;-81
2023/02/16 13:17:54;;;;;;;55.30;39.50;;;14.70;93.70;;;;;;5082050;28;20440;-84
2023/02/16 13:20:21;;;;;;;57.80;39.73;;;14.70;93.90;;;;;;5101088;28;20640;-83
2023/02/16 13:23:15;;;;;;;53.83;35.60;;;14.50;94.00;;;;;;5103025;28;20967;-83
2023/02/16 13:26:04;;;;;;;49.80;32.53;;;14.50;94.00;;;;;;5086214;28;20444;-84
2023/02/16 13:28:42;;;;;;;49.83;35.43;;;14.60;94.30;;;;;;5062719;28;20457;-84
2023/02/16 13:31:28;;;;;;;48.27;32.93;;;14.80;93.70;;;;;;5086448;28;20516;-82
2023/02/16 13:34:12;;;;;;;50.07;33.27;;;14.80;93.60;;;;;;5107630;28;20867;-83
2023/02/16 13:36:56;;;;;;;49.53;33.30;;;14.90;93.80;;;;;;5085044;28;20435;-82
2023/02/16 13:39:46;;;;;;;45.17;32.43;;;15.00;93.90;;;;;;5103541;28;20775;-84